createdAt,value
2023-05-01T00:02:07.519Z,3.20
2023-05-01T00:04:35.294Z,3.21
2023-05-01T00:07:03.134Z,3.20
2023-05-01T00:09:32.070Z,3.17
2023-05-01T00:11:59.502Z,3.18
2023-05-01T00:14:29.591Z,3.01
2023-05-01T00:16:57.125Z,3.19
2023-05-01T00:19:24.620Z,3.20
2023-05-01T00:21:52.963Z,3.08
2023-05-01T00:24:20.374Z,3.04
2023-05-01T00:26:47.855Z,3.16
2023-05-01T00:29:15.275Z,3.15
2023-05-01T00:31:45.565Z,3.14
2023-05-01T00:34:13.142Z,3.17
2023-05-01T00:36:40.843Z,3.15
2023-05-01T00:39:08.506Z,3.16
2023-05-01T00:41:36.407Z,3.09
2023-05-01T00:44:04.133Z,3.07
2023-05-01T00:46:33.540Z,3.02
2023-05-01T00:49:04.400Z,3.06
2023-05-01T00:51:32.958Z,2.93
2023-05-01T00:54:01.422Z,2.87
2023-05-01T00:56:29.125Z,2.87
2023-05-01T00:58:57.318Z,2.65
2023-05-01T01:01:24.974Z,2.52
2023-05-01T01:03:52.509Z,2.49
2023-05-01T01:06:31.157Z,2.43
2023-05-01T01:09:13.805Z,2.39
2023-05-01T01:11:47.284Z,2.48
2023-05-01T01:14:18.344Z,2.64
2023-05-01T01:16:53.971Z,2.56
2023-05-01T01:19:47.279Z,2.60
2023-05-01T01:22:21.469Z,2.49
2023-05-01T01:25:06.496Z,2.59
2023-05-01T01:27:59.147Z,2.64
2023-05-01T01:30:50.426Z,2.49
2023-05-01T01:33:45.027Z,2.44
2023-05-01T01:36:19.863Z,2.33
2023-05-01T01:38:52.881Z,2.33
2023-05-01T01:41:21.858Z,2.36
2023-05-01T01:44:10.222Z,2.30
2023-05-01T01:46:40.507Z,2.24
2023-05-01T01:49:14.473Z,2.20
2023-05-01T01:51:42.937Z,2.19
2023-05-01T01:54:13.986Z,2.17
2023-05-01T01:56:43.057Z,2.24
2023-05-01T01:59:12.142Z,2.19
2023-05-01T02:01:41.729Z,2.14
2023-05-01T02:04:12.495Z,1.99
2023-05-01T02:06:41.172Z,1.95
2023-05-01T02:09:10.603Z,1.99
2023-05-01T02:11:39.106Z,2.11
2023-05-01T02:14:08.754Z,2.25
2023-05-01T02:16:37.528Z,2.31
2023-05-01T02:19:05.984Z,2.18
2023-05-01T02:21:36.499Z,2.07
2023-05-01T02:24:06.775Z,2.05
2023-05-01T02:26:39.543Z,2.06
2023-05-01T02:29:07.423Z,2.06
2023-05-01T02:31:35.464Z,2.21
2023-05-01T02:34:02.896Z,2.20
2023-05-01T02:36:31.954Z,2.22
2023-05-01T02:39:00.830Z,2.21
2023-05-01T02:41:32.219Z,2.26
2023-05-01T02:44:04.369Z,2.31
2023-05-01T02:46:32.766Z,2.39
2023-05-01T02:49:02.509Z,2.37
2023-05-01T02:51:31.511Z,2.28
2023-05-01T02:54:00.298Z,2.14
2023-05-01T02:56:29.609Z,2.26
2023-05-01T02:58:57.193Z,2.32
2023-05-01T03:01:24.713Z,2.34
2023-05-01T03:03:52.785Z,2.28
2023-05-01T03:06:20.342Z,2.11
2023-05-01T03:08:48.268Z,2.09
2023-05-01T03:11:15.747Z,2.03
2023-05-01T03:13:44.608Z,1.91
2023-05-01T03:16:12.200Z,2.05
2023-05-01T03:18:39.728Z,2.12
2023-05-01T03:21:07.260Z,2.17
2023-05-01T03:23:34.886Z,2.24
2023-05-01T03:26:02.257Z,2.24
2023-05-01T03:28:29.660Z,2.28
2023-05-01T03:30:58.359Z,2.30
2023-05-01T03:33:26.642Z,2.39
2023-05-01T03:36:01.223Z,2.41
2023-05-01T03:38:28.581Z,2.39
2023-05-01T03:40:55.950Z,2.37
2023-05-01T03:43:23.773Z,2.31
2023-05-01T03:45:51.312Z,2.29
2023-05-01T03:48:20.548Z,2.31
2023-05-01T03:50:47.949Z,2.38
2023-05-01T03:53:15.358Z,2.25
2023-05-01T03:55:42.819Z,2.21
2023-05-01T03:58:10.628Z,2.26
2023-05-01T04:00:38.560Z,2.21
2023-05-01T04:03:06.644Z,2.25
2023-05-01T04:05:35.949Z,2.33
2023-05-01T04:08:04.312Z,2.38
2023-05-01T04:10:31.804Z,2.25
2023-05-01T04:12:59.179Z,2.16
2023-05-01T04:15:26.888Z,2.17
2023-05-01T04:17:55.832Z,2.24
2023-05-01T04:20:23.444Z,2.38
2023-05-01T04:22:52.496Z,2.47
2023-05-01T04:25:19.893Z,2.45
2023-05-01T04:27:47.688Z,2.42
2023-05-01T04:30:15.126Z,2.46
2023-05-01T04:32:42.502Z,2.46
2023-05-01T04:35:10.460Z,2.54
2023-05-01T04:37:37.809Z,2.62
2023-05-01T04:40:09.824Z,2.66
2023-05-01T04:42:38.790Z,2.79
2023-05-01T04:45:07.334Z,2.81
2023-05-01T04:47:34.719Z,2.81
2023-05-01T04:50:02.180Z,2.81
2023-05-01T04:52:29.627Z,2.81
2023-05-01T04:54:57.767Z,2.81
2023-05-01T04:57:26.607Z,2.81
2023-05-01T04:59:54.102Z,2.81
2023-05-01T05:02:21.736Z,2.81
2023-05-01T05:04:50.076Z,2.81
2023-05-01T05:07:17.484Z,2.81
2023-05-01T05:09:44.898Z,2.81
2023-05-01T05:12:12.743Z,2.81
2023-05-01T05:14:41.441Z,2.81
2023-05-01T05:17:08.822Z,2.81
2023-05-01T05:19:36.380Z,2.81
2023-05-01T05:22:04.399Z,2.81
2023-05-01T05:24:32.502Z,2.81
2023-05-01T05:26:59.895Z,2.81
2023-05-01T05:29:27.260Z,2.81
2023-05-01T05:31:57.032Z,2.81
2023-05-01T05:34:24.488Z,2.81
2023-05-01T05:36:51.898Z,2.81
2023-05-01T05:39:20.436Z,2.81
2023-05-01T05:41:49.265Z,2.81
2023-05-01T05:44:16.653Z,2.81
2023-05-01T05:46:44.000Z,2.81
2023-05-01T05:49:12.779Z,2.81
2023-05-01T05:51:40.146Z,2.81
2023-05-01T05:54:07.642Z,2.81
2023-05-01T05:56:35.014Z,2.81
2023-05-01T05:59:04.416Z,2.81
2023-05-01T06:01:32.283Z,2.81
2023-05-01T06:03:59.703Z,2.81
2023-05-01T06:06:28.444Z,2.81
2023-05-01T06:08:55.882Z,2.81
2023-05-01T06:11:23.291Z,2.81
2023-05-01T06:13:50.969Z,2.81
2023-05-01T06:16:19.194Z,2.81
2023-05-01T06:18:46.711Z,2.81
2023-05-01T06:21:14.119Z,2.81
2023-05-01T06:23:42.812Z,2.81
2023-05-01T06:26:10.201Z,2.81
2023-05-01T06:28:37.569Z,2.81
2023-05-01T06:31:05.422Z,2.81
2023-05-01T06:33:33.012Z,2.81
2023-05-01T06:36:00.673Z,12.83
2023-05-01T06:38:28.286Z,13.03
2023-05-01T06:40:57.049Z,13.01
2023-05-01T06:43:27.930Z,13.28
2023-05-01T06:45:55.304Z,13.41
2023-05-01T06:48:22.832Z,13.40
2023-05-01T06:50:50.355Z,13.59
2023-05-01T06:53:17.729Z,13.69
2023-05-01T06:55:45.130Z,13.73
2023-05-01T06:58:23.406Z,13.61
2023-05-01T07:00:51.791Z,13.45
2023-05-01T07:03:19.352Z,13.78
2023-05-01T07:05:46.926Z,14.15
2023-05-01T07:08:14.446Z,14.40
2023-05-01T07:10:42.285Z,14.61
2023-05-01T07:13:10.158Z,14.91
2023-05-01T07:15:39.163Z,14.76
2023-05-01T07:18:06.786Z,15.49
2023-05-01T07:20:34.412Z,15.64
2023-05-01T07:23:01.810Z,16.14
2023-05-01T07:25:29.852Z,16.32
2023-05-01T07:28:01.216Z,16.87
2023-05-01T07:30:30.345Z,17.17
2023-05-01T07:32:59.080Z,17.42
2023-05-01T07:35:26.519Z,17.33
2023-05-01T07:37:54.928Z,17.70
2023-05-01T07:40:22.325Z,17.71
2023-05-01T07:42:50.092Z,17.73
2023-05-01T07:45:18.456Z,17.80
2023-05-01T07:47:46.016Z,17.72
2023-05-01T07:50:14.750Z,17.82
2023-05-01T07:52:42.145Z,17.83
2023-05-01T07:55:10.695Z,17.87
2023-05-01T07:57:38.768Z,17.69
2023-05-01T08:00:07.651Z,18.12
2023-05-01T08:02:35.149Z,18.19
2023-05-01T08:05:03.959Z,18.56
2023-05-01T08:07:32.762Z,18.66
2023-05-01T08:10:00.765Z,19.12
2023-05-01T08:12:29.761Z,19.33
2023-05-01T08:14:57.115Z,19.48
2023-05-01T08:17:24.533Z,19.77
2023-05-01T08:19:53.805Z,19.32
2023-05-01T08:22:21.462Z,19.92
2023-05-01T08:24:51.103Z,19.82
2023-05-01T08:27:19.117Z,19.32
2023-05-01T08:29:46.680Z,19.72
2023-05-01T08:32:15.188Z,19.92
2023-05-01T08:34:42.560Z,20.35
2023-05-01T08:37:09.918Z,20.75
2023-05-01T08:39:38.920Z,20.89
2023-05-01T08:42:07.713Z,20.75
2023-05-01T08:44:41.351Z,20.98
2023-05-01T08:47:13.801Z,21.57
2023-05-01T08:49:42.595Z,21.48
2023-05-01T08:52:12.661Z,21.83
2023-05-01T08:54:43.391Z,22.01
2023-05-01T08:57:13.682Z,22.27
2023-05-01T08:59:42.016Z,22.38
2023-05-01T09:02:10.769Z,22.77
2023-05-01T09:04:39.488Z,23.03
2023-05-01T09:07:06.959Z,22.69
2023-05-01T09:09:35.273Z,22.83
2023-05-01T09:12:09.776Z,22.78
2023-05-01T09:14:38.934Z,22.40
2023-05-01T09:17:06.321Z,22.36
2023-05-01T09:19:33.880Z,23.17
2023-05-01T09:22:01.382Z,23.97
2023-05-01T09:24:28.784Z,23.83
2023-05-01T09:26:58.085Z,24.21
2023-05-01T09:29:40.029Z,24.32
2023-05-01T09:32:20.801Z,25.15
2023-05-01T09:34:49.478Z,25.12
2023-05-01T09:37:28.332Z,25.36
2023-05-01T09:40:07.076Z,25.05
2023-05-01T09:42:35.308Z,25.35
2023-05-01T09:45:06.887Z,24.70
2023-05-01T09:47:35.141Z,24.80
2023-05-01T09:50:02.575Z,25.28
2023-05-01T09:52:31.505Z,25.96
2023-05-01T09:55:15.554Z,26.01
2023-05-01T09:57:43.663Z,26.60
2023-05-01T10:00:14.481Z,26.97
2023-05-01T10:02:43.321Z,27.37
2023-05-01T10:05:11.699Z,27.57
2023-05-01T10:07:39.254Z,27.63
2023-05-01T10:10:19.597Z,27.68
2023-05-01T10:12:47.058Z,27.86
2023-05-01T10:15:25.280Z,27.83
2023-05-01T10:17:55.033Z,27.96
2023-05-01T10:20:22.774Z,27.79
2023-05-01T10:22:50.395Z,28.42
2023-05-01T10:25:18.743Z,28.60
2023-05-01T10:27:46.285Z,28.60
2023-05-01T10:30:13.823Z,28.60
2023-05-01T10:32:43.298Z,29.28
2023-05-01T10:35:14.943Z,29.22
2023-05-01T10:37:48.395Z,29.46
2023-05-01T10:40:48.082Z,30.57
2023-05-01T10:43:17.595Z,30.41
2023-05-01T10:45:45.493Z,30.25
2023-05-01T10:48:34.435Z,28.59
2023-05-01T10:51:09.227Z,28.83
2023-05-01T10:53:36.830Z,28.76
2023-05-01T10:56:06.001Z,27.95
2023-05-01T10:58:58.141Z,28.96
2023-05-01T11:01:30.675Z,28.46
2023-05-01T11:04:00.601Z,29.26
2023-05-01T11:06:28.264Z,30.12
2023-05-01T11:08:56.118Z,31.33
2023-05-01T11:11:51.429Z,32.21
2023-05-01T11:14:19.171Z,29.59
2023-05-01T11:16:48.776Z,28.94
2023-05-01T11:19:52.387Z,29.86
2023-05-01T11:22:20.281Z,29.03
2023-05-01T11:24:47.984Z,26.91
2023-05-01T11:27:16.898Z,26.36
2023-05-01T11:29:50.286Z,24.66
2023-05-01T11:32:20.454Z,26.01
2023-05-01T11:34:51.208Z,26.03
2023-05-01T11:37:18.917Z,25.72
2023-05-01T11:39:51.123Z,26.32
2023-05-01T11:42:21.783Z,25.34
2023-05-01T11:45:07.922Z,24.93
2023-05-01T11:47:35.648Z,24.87
2023-05-01T11:50:04.657Z,25.10
2023-05-01T11:52:42.829Z,26.00
2023-05-01T11:55:11.389Z,26.25
2023-05-01T11:57:49.276Z,25.91
2023-05-01T12:00:26.737Z,24.13
2023-05-01T12:02:58.982Z,24.50
2023-05-01T12:05:29.297Z,24.42
2023-05-01T12:08:11.645Z,25.25
2023-05-01T12:10:40.779Z,25.72
2023-05-01T12:13:09.903Z,26.34
2023-05-01T12:15:38.821Z,26.08
2023-05-01T12:18:06.900Z,24.92
2023-05-01T12:20:40.794Z,24.03
2023-05-01T12:23:10.455Z,23.41
2023-05-01T12:25:39.418Z,23.44
2023-05-01T12:28:11.225Z,23.35
2023-05-01T12:30:39.498Z,24.06
2023-05-01T12:33:11.894Z,24.23
2023-05-01T12:35:41.750Z,23.57
2023-05-01T12:38:13.812Z,23.62
2023-05-01T12:40:42.249Z,23.97
2023-05-01T12:43:09.748Z,23.84
2023-05-01T12:45:40.633Z,22.85
2023-05-01T12:48:13.650Z,22.64
2023-05-01T12:50:44.031Z,22.94
2023-05-01T12:53:13.456Z,23.21
2023-05-01T12:55:46.699Z,23.41
2023-05-01T12:58:14.899Z,24.27
2023-05-01T13:00:46.676Z,25.41
2023-05-01T13:03:17.142Z,26.63
2023-05-01T13:05:53.354Z,27.52
2023-05-01T13:08:27.236Z,28.29
2023-05-01T13:10:57.168Z,28.60
2023-05-01T13:13:26.501Z,30.13
2023-05-01T13:15:54.205Z,30.35
2023-05-01T13:18:21.891Z,30.66
2023-05-01T13:20:49.310Z,32.38
2023-05-01T13:23:18.010Z,35.23
2023-05-01T13:25:46.325Z,37.69
2023-05-01T13:28:18.955Z,39.66
2023-05-01T13:30:46.307Z,39.52
2023-05-01T13:33:13.889Z,38.13
2023-05-01T13:35:41.435Z,35.20
2023-05-01T13:38:12.438Z,32.67
2023-05-01T13:40:41.550Z,32.21
2023-05-01T13:43:16.158Z,31.09
2023-05-01T13:45:43.609Z,32.34
2023-05-01T13:48:11.384Z,32.59
2023-05-01T13:50:42.206Z,31.95
2023-05-01T13:53:10.435Z,31.38
2023-05-01T13:55:41.050Z,33.64
2023-05-01T13:58:08.754Z,34.49
2023-05-01T14:00:36.333Z,32.95
2023-05-01T14:03:03.820Z,32.14
2023-05-01T14:05:31.324Z,33.65
2023-05-01T14:07:59.412Z,34.10
2023-05-01T14:10:29.522Z,31.33
2023-05-01T14:12:59.232Z,30.38
2023-05-01T14:15:27.064Z,32.09
2023-05-01T14:17:54.483Z,30.52
2023-05-01T14:20:22.132Z,31.16
2023-05-01T14:22:52.265Z,32.86
2023-05-01T14:25:25.128Z,31.01
2023-05-01T14:27:53.820Z,31.68
2023-05-01T14:30:28.791Z,30.01
2023-05-01T14:32:56.906Z,26.93
2023-05-01T14:35:25.509Z,25.78
2023-05-01T14:37:52.947Z,25.56
2023-05-01T14:40:26.256Z,27.82
2023-05-01T14:42:55.217Z,28.68
2023-05-01T14:45:22.593Z,26.73
2023-05-01T14:47:53.767Z,25.85
2023-05-01T14:50:22.871Z,26.34
2023-05-01T14:52:54.083Z,27.79
2023-05-01T14:55:27.225Z,27.96
2023-05-01T14:57:55.074Z,24.97
2023-05-01T15:00:23.560Z,23.44
2023-05-01T15:02:52.325Z,23.57
2023-05-01T15:05:19.842Z,24.16
2023-05-01T15:07:47.326Z,24.24
2023-05-01T15:10:15.484Z,25.10
2023-05-01T15:12:42.842Z,26.90
2023-05-01T15:15:11.342Z,28.02
2023-05-01T15:17:38.718Z,28.35
2023-05-01T15:20:09.460Z,28.24
2023-05-01T15:22:37.981Z,26.78
2023-05-01T15:25:08.719Z,25.54
2023-05-01T15:27:36.313Z,24.91
2023-05-01T15:30:05.138Z,25.92
2023-05-01T15:32:32.700Z,26.12
2023-05-01T15:35:00.600Z,25.25
2023-05-01T15:37:31.158Z,25.18
2023-05-01T15:39:59.678Z,25.07
2023-05-01T15:42:27.228Z,24.19
2023-05-01T15:44:54.567Z,22.98
2023-05-01T15:47:21.985Z,22.53
2023-05-01T15:49:49.606Z,22.26
2023-05-01T15:52:17.016Z,23.32
2023-05-01T15:54:47.983Z,22.92
2023-05-01T15:57:17.590Z,23.18
2023-05-01T15:59:45.191Z,22.79
2023-05-01T16:02:12.859Z,22.84
2023-05-01T16:04:42.166Z,22.94
2023-05-01T16:07:10.571Z,23.48
2023-05-01T16:09:38.430Z,23.64
2023-05-01T16:12:08.525Z,25.38
2023-05-01T16:14:36.785Z,24.93
2023-05-01T16:17:05.920Z,25.95
2023-05-01T16:19:33.558Z,26.81
2023-05-01T16:22:04.090Z,29.20
2023-05-01T16:24:33.106Z,31.30
2023-05-01T16:27:00.867Z,33.20
2023-05-01T16:29:29.929Z,30.53
2023-05-01T16:31:57.317Z,27.02
2023-05-01T16:34:26.333Z,25.76
2023-05-01T16:36:56.046Z,24.26
2023-05-01T16:39:24.156Z,23.07
2023-05-01T16:44:22.215Z,22.90
2023-05-01T16:46:54.506Z,22.45
2023-05-01T16:49:22.980Z,22.11
2023-05-01T16:51:50.688Z,21.91
2023-05-01T16:54:18.651Z,21.75
2023-05-01T16:56:46.296Z,21.35
2023-05-01T16:59:13.893Z,20.67
2023-05-01T17:01:41.481Z,20.11
2023-05-01T17:04:10.872Z,19.88
2023-05-01T17:06:38.338Z,19.48
2023-05-01T17:09:06.289Z,19.07
2023-05-01T17:11:33.908Z,18.84
2023-05-01T17:14:01.267Z,18.59
2023-05-01T17:16:29.061Z,18.51
2023-05-01T17:18:56.519Z,18.59
2023-05-01T17:21:27.852Z,18.52
2023-05-01T17:23:55.206Z,18.43
2023-05-01T17:26:22.753Z,18.27
2023-05-01T17:28:50.453Z,18.19
2023-05-01T17:31:19.361Z,18.10
2023-05-01T17:33:48.553Z,18.02
2023-05-01T17:36:15.933Z,18.01
2023-05-01T17:38:44.675Z,18.25
2023-05-01T17:41:12.317Z,18.36
2023-05-01T17:43:39.688Z,19.44
2023-05-01T17:46:07.353Z,19.78
2023-05-01T17:48:34.755Z,19.30
2023-05-01T17:51:02.156Z,18.52
2023-05-01T17:53:29.579Z,18.08
2023-05-01T17:55:58.252Z,17.60
2023-05-01T17:58:25.590Z,17.37
2023-05-01T18:00:55.421Z,17.32
2023-05-01T18:03:23.886Z,17.28
2023-05-01T18:05:51.391Z,17.15
2023-05-01T18:08:18.762Z,17.16
2023-05-01T18:10:46.124Z,16.97
2023-05-01T18:13:15.584Z,16.81
2023-05-01T18:15:43.011Z,16.65
2023-05-01T18:18:10.871Z,16.48
2023-05-01T18:20:38.324Z,16.41
2023-05-01T18:23:06.776Z,16.51
2023-05-01T18:25:34.934Z,16.67
2023-05-01T18:28:02.292Z,16.76
2023-05-01T18:30:31.246Z,17.12
2023-05-01T18:33:00.921Z,17.26
2023-05-01T18:35:28.420Z,17.29
2023-05-01T18:37:55.827Z,17.34
2023-05-01T18:40:23.177Z,17.39
2023-05-01T18:42:50.536Z,17.36
2023-05-01T18:45:18.016Z,17.25
2023-05-01T18:47:46.782Z,17.24
2023-05-01T18:50:14.287Z,17.17
2023-05-01T18:52:42.690Z,17.10
2023-05-01T18:55:11.188Z,17.03
2023-05-01T18:57:41.550Z,17.01
2023-05-01T19:00:10.947Z,16.97
2023-05-01T19:02:39.239Z,16.79
2023-05-01T19:05:09.355Z,16.50
2023-05-01T19:07:36.917Z,16.26
2023-05-01T19:10:04.862Z,16.06
2023-05-01T19:12:32.373Z,15.94
2023-05-01T19:15:00.183Z,15.87
2023-05-01T19:17:27.971Z,15.78
2023-05-01T19:19:55.536Z,15.65
2023-05-01T19:22:24.710Z,15.39
2023-05-01T19:24:52.164Z,15.04
2023-05-01T19:27:19.549Z,14.63
2023-05-01T19:29:46.952Z,14.24
2023-05-01T19:32:14.648Z,13.93
2023-05-01T19:34:42.152Z,13.74
2023-05-01T19:37:09.677Z,13.61
2023-05-01T19:39:39.536Z,13.57
2023-05-01T19:42:07.028Z,13.40
2023-05-01T19:44:37.162Z,13.25
2023-05-01T19:47:04.600Z,13.17
2023-05-01T19:49:32.004Z,13.15
2023-05-01T19:51:59.762Z,13.09
2023-05-01T19:54:27.250Z,13.04
2023-05-01T19:56:56.157Z,12.95
2023-05-01T19:59:24.263Z,12.76
2023-05-01T20:01:51.801Z,12.62
2023-05-01T20:04:19.398Z,12.53
2023-05-01T20:06:46.968Z,12.51
2023-05-01T20:09:14.762Z,12.42
2023-05-01T20:11:42.186Z,12.40
2023-05-01T20:14:11.341Z,12.40
2023-05-01T20:16:38.797Z,12.36
2023-05-01T20:19:06.457Z,12.30
2023-05-01T20:21:33.917Z,12.29
2023-05-01T20:24:01.291Z,12.30
2023-05-01T20:26:29.006Z,12.32
2023-05-01T20:28:56.714Z,12.28
2023-05-01T20:31:25.947Z,12.30
2023-05-01T20:33:53.563Z,12.28
2023-05-01T20:36:22.026Z,12.28
2023-05-01T20:38:53.034Z,12.23
2023-05-01T20:41:20.757Z,12.26
2023-05-01T20:43:48.110Z,12.22
2023-05-01T20:46:15.586Z,12.15
2023-05-01T20:48:45.201Z,12.14
2023-05-01T20:51:13.653Z,12.14
2023-05-01T20:53:41.167Z,12.14
2023-05-01T20:56:09.970Z,12.14
2023-05-01T20:58:37.887Z,12.14
2023-05-01T21:01:06.526Z,12.14
2023-05-01T21:03:34.032Z,12.14
2023-05-01T21:06:03.149Z,12.14
2023-05-01T21:08:31.276Z,12.14
2023-05-01T21:10:58.795Z,12.14
2023-05-01T21:13:27.595Z,12.14
2023-05-01T21:15:55.688Z,12.13
2023-05-01T21:18:23.547Z,12.13
2023-05-01T21:20:51.147Z,12.13
2023-05-01T21:23:19.862Z,12.13
2023-05-01T21:25:47.281Z,12.13
2023-05-01T21:28:15.044Z,12.13
2023-05-01T21:30:42.476Z,12.13
2023-05-01T21:33:14.584Z,12.13
2023-05-01T21:35:43.556Z,12.13
2023-05-01T21:38:11.334Z,12.13
2023-05-01T21:40:42.476Z,12.13
2023-05-01T21:43:10.960Z,11.71
2023-05-01T21:45:41.037Z,11.71
2023-05-01T21:48:09.445Z,11.71
2023-05-01T21:50:38.499Z,11.71
2023-05-01T21:53:07.094Z,11.71
2023-05-01T21:55:34.907Z,11.71
2023-05-01T21:58:04.221Z,11.71
2023-05-01T22:00:31.666Z,11.71
2023-05-01T22:02:59.171Z,11.07
2023-05-01T22:05:29.101Z,11.07
2023-05-01T22:07:56.462Z,10.91
2023-05-01T22:10:25.177Z,10.91
2023-05-01T22:12:52.857Z,10.85
2023-05-01T22:15:21.754Z,10.85
2023-05-01T22:17:49.240Z,10.85
2023-05-01T22:20:16.764Z,10.85
2023-05-01T22:22:44.174Z,10.95
2023-05-01T22:25:12.650Z,11.01
2023-05-01T22:27:40.586Z,10.94
2023-05-01T22:30:08.583Z,10.88
2023-05-01T22:32:37.425Z,10.92
2023-05-01T22:35:05.242Z,10.87
2023-05-01T22:37:32.731Z,10.95
2023-05-01T22:40:00.700Z,11.07
2023-05-01T22:42:28.480Z,11.09
2023-05-01T22:44:55.840Z,11.10
2023-05-01T22:47:23.305Z,11.05
2023-05-01T22:49:52.005Z,11.07
2023-05-01T22:52:19.430Z,11.15
2023-05-01T22:54:47.121Z,11.18
2023-05-01T22:57:14.511Z,11.22
2023-05-01T22:59:42.118Z,11.22
2023-05-01T23:02:10.091Z,11.17
2023-05-01T23:04:37.493Z,11.30
2023-05-01T23:07:06.168Z,11.28
2023-05-01T23:09:33.654Z,11.32
2023-05-01T23:12:01.832Z,11.32
2023-05-01T23:14:29.192Z,11.34
2023-05-01T23:16:56.807Z,11.36
2023-05-01T23:19:25.707Z,11.36
2023-05-01T23:22:09.842Z,11.38
2023-05-01T23:24:43.494Z,11.29
2023-05-01T23:27:13.397Z,11.35
2023-05-01T23:29:41.666Z,11.24
2023-05-01T23:32:15.219Z,11.10
2023-05-01T23:34:43.256Z,11.18
2023-05-01T23:37:11.959Z,11.27
2023-05-01T23:39:39.421Z,11.28
2023-05-01T23:42:07.198Z,11.32
2023-05-01T23:44:34.596Z,11.36
2023-05-01T23:47:02.182Z,11.36
2023-05-01T23:49:29.664Z,11.26
2023-05-01T23:51:57.458Z,11.17
2023-05-01T23:54:26.317Z,11.28
2023-05-01T23:56:54.282Z,11.28
2023-05-01T23:59:21.626Z,11.29
